Terminal Aerodrome Forecast
Issued by NWS

Home | Current Version | Previous Version | Text Only | Print | Product List | Glossary Off
Versions: 1 2 3 4 5 6 7 8 9 10 11 12 13 14 15 16 17 18 19

000
FTUS43 KTOP 240806 AAA
TAFFOE
TAF AMD
KFOE 240806Z 2408/2506 15007KT P6SM FEW020 BKN200
     FM240900 16007KT P6SM VCTS BKN016 OVC050CB
      TEMPO 2411/2413 4SM TSRA
     FM241600 17009KT P6SM SCT020 BKN150=

USA.gov is the U.S. government's official web portal to all federal, state and local government web resources and services.